Time;durP1;ratioP1;P1;durP2;ratioP2;P2;SDS_P1;SDS_P2;PMS_P1;PMS_P2;Temp;Humidity;BMP_temperature;BMP_pressure;BME280_temperature;BME280_humidity;BME280_pressure;Samples;Min_cycle;Max_cycle;Signal;HPM_P1;HPM_P2
2024/02/19 00:02:21;;;;;;;30.53;3.77;;;;;;;;;;5074107;28;20265;-29
2024/02/19 00:04:47;;;;;;;30.75;3.58;;;;;;;;;;5073986;28;20261;-28
2024/02/19 00:07:14;;;;;;;24.50;3.50;;;;;;;;;;5073865;28;20464;-29
2024/02/19 00:09:39;;;;;;;32.17;3.95;;;;;;;;;;5073996;28;20463;-29
2024/02/19 00:12:04;;;;;;;35.40;4.10;;;;;;;;;;5073895;28;20069;-30
2024/02/19 00:14:29;;;;;;;32.17;4.68;;;;;;;;;;5073973;28;20614;-29
2024/02/19 00:16:55;;;;;;;36.67;4.80;;;;;;;;;;5073621;28;20020;-29
2024/02/19 00:19:21;;;;;;;29.65;4.10;;;;;;;;;;5073923;28;20338;-28
2024/02/19 00:21:46;;;;;;;29.75;4.45;;;;;;;;;;5073883;28;20016;-29
2024/02/19 00:24:11;;;;;;;31.53;3.57;;;;;;;;;;5073569;28;20115;-28
2024/02/19 00:26:36;;;;;;;36.07;4.87;;;;;;;;;;5073694;28;20381;-28
2024/02/19 00:29:02;;;;;;;28.77;4.10;;;;;;;;;;5073477;28;20602;-28
2024/02/19 00:31:27;;;;;;;31.17;4.00;;;;;;;;;;5073478;28;20312;-28
2024/02/19 00:33:53;;;;;;;25.23;3.20;;;;;;;;;;5073680;28;20016;-28
2024/02/19 00:36:19;;;;;;;26.92;3.38;;;;;;;;;;5073896;28;20081;-28
2024/02/19 00:38:45;;;;;;;34.83;4.15;;;;;;;;;;5073639;28;20467;-28
2024/02/19 00:41:10;;;;;;;37.10;4.33;;;;;;;;;;5073701;28;20020;-29
2024/02/19 00:43:36;;;;;;;30.27;3.70;;;;;;;;;;5073881;28;20251;-28
2024/02/19 00:46:02;;;;;;;32.10;3.53;;;;;;;;;;5072314;28;20285;-28
2024/02/19 00:48:27;;;;;;;31.38;3.50;;;;;;;;;;5073844;28;20012;-28
2024/02/19 00:50:52;;;;;;;23.83;3.23;;;;;;;;;;5073769;28;20020;-28
2024/02/19 00:53:17;;;;;;;25.77;3.67;;;;;;;;;;5073314;28;20306;-29
2024/02/19 00:55:42;;;;;;;29.70;4.10;;;;;;;;;;5073200;28;20254;-28
2024/02/19 00:58:07;;;;;;;30.90;3.10;;;;;;;;;;5073778;28;20349;-28
2024/02/19 01:00:33;;;;;;;25.40;3.63;;;;;;;;;;5073377;28;20289;-28
2024/02/19 01:02:58;;;;;;;35.10;3.88;;;;;;;;;;5073093;28;20729;-28
2024/02/19 01:05:24;;;;;;;34.20;3.65;;;;;;;;;;5073296;28;20020;-28
2024/02/19 01:07:50;;;;;;;22.90;3.47;;;;;;;;;;5073119;28;20056;-29
2024/02/19 01:10:15;;;;;;;23.43;3.10;;;;;;;;;;5073038;28;20009;-29
2024/02/19 01:12:40;;;;;;;29.80;4.72;;;;;;;;;;5073107;28;20316;-28
2024/02/19 01:15:05;;;;;;;23.73;3.53;;;;;;;;;;5073566;28;20020;-28
2024/02/19 01:17:31;;;;;;;26.25;3.30;;;;;;;;;;5073010;28;20610;-28
2024/02/19 01:19:57;;;;;;;31.02;3.03;;;;;;;;;;5073197;28;20032;-29
2024/02/19 01:22:22;;;;;;;24.15;3.17;;;;;;;;;;5073269;28;20047;-29
2024/02/19 01:24:48;;;;;;;25.93;3.60;;;;;;;;;;5073090;28;20027;-28
2024/02/19 01:27:13;;;;;;;33.22;3.78;;;;;;;;;;5072979;28;20323;-29
2024/02/19 01:29:38;;;;;;;42.47;4.03;;;;;;;;;;5072757;28;20017;-29
2024/02/19 01:32:04;;;;;;;30.73;4.10;;;;;;;;;;5073409;28;20281;-28
2024/02/19 01:34:29;;;;;;;30.08;3.83;;;;;;;;;;5073033;28;20271;-28
2024/02/19 01:36:56;;;;;;;26.52;3.15;;;;;;;;;;5073090;28;20025;-28
2024/02/19 01:39:22;;;;;;;19.88;3.60;;;;;;;;;;5072731;28;20028;-28
2024/02/19 01:41:47;;;;;;;29.25;4.15;;;;;;;;;;5072946;28;20066;-29
2024/02/19 01:44:12;;;;;;;30.50;3.35;;;;;;;;;;5072908;28;20460;-28
2024/02/19 01:46:38;;;;;;;32.58;4.20;;;;;;;;;;5072649;28;20136;-28
2024/02/19 01:49:04;;;;;;;40.50;4.47;;;;;;;;;;5072665;28;20066;-29
2024/02/19 01:51:30;;;;;;;28.65;3.40;;;;;;;;;;5072931;28;20016;-28
2024/02/19 01:53:55;;;;;;;30.25;3.25;;;;;;;;;;5072628;28;20020;-28
2024/02/19 01:56:21;;;;;;;29.77;4.43;;;;;;;;;;5072827;28;20107;-28
2024/02/19 01:58:47;;;;;;;26.08;3.33;;;;;;;;;;5076220;28;20459;-28
2024/02/19 02:01:13;;;;;;;23.30;3.88;;;;;;;;;;5076109;28;20032;-29
2024/02/19 02:03:40;;;;;;;30.30;3.83;;;;;;;;;;5076326;28;20025;-28
2024/02/19 02:06:05;;;;;;;24.92;3.50;;;;;;;;;;5075952;28;20103;-28
2024/02/19 02:08:31;;;;;;;32.65;3.15;;;;;;;;;;5075788;28;20521;-28
2024/02/19 02:10:56;;;;;;;25.17;3.13;;;;;;;;;;5076120;28;20084;-28
2024/02/19 02:13:22;;;;;;;25.97;3.33;;;;;;;;;;5076488;28;20025;-28
2024/02/19 02:15:47;;;;;;;30.83;3.55;;;;;;;;;;5074584;28;20784;-28
2024/02/19 02:18:14;;;;;;;21.90;3.20;;;;;;;;;;5076393;28;20024;-28
2024/02/19 02:20:39;;;;;;;29.52;3.30;;;;;;;;;;5075954;28;20302;-28
2024/02/19 02:23:05;;;;;;;28.38;3.53;;;;;;;;;;5075674;28;20056;-29
2024/02/19 02:25:30;;;;;;;37.38;4.22;;;;;;;;;;5075555;28;20097;-29
2024/02/19 02:27:57;;;;;;;26.25;2.92;;;;;;;;;;5075904;28;20017;-29
2024/02/19 02:30:22;;;;;;;29.35;3.00;;;;;;;;;;5075838;28;20452;-28
2024/02/19 02:32:48;;;;;;;25.27;3.50;;;;;;;;;;5076102;28;20023;-29
2024/02/19 02:35:15;;;;;;;30.70;4.30;;;;;;;;;;5075717;28;20263;-28
2024/02/19 02:37:40;;;;;;;33.88;4.03;;;;;;;;;;5074166;28;20024;-29
2024/02/19 02:40:06;;;;;;;28.33;3.87;;;;;;;;;;5075912;28;20012;-28
2024/02/19 02:42:31;;;;;;;23.92;3.45;;;;;;;;;;5075625;28;20255;-29
2024/02/19 02:44:56;;;;;;;25.13;3.17;;;;;;;;;;5075550;28;20028;-28
2024/02/19 02:47:21;;;;;;;24.00;3.10;;;;;;;;;;5075332;28;20460;-28
2024/02/19 02:49:47;;;;;;;26.40;4.77;;;;;;;;;;5075488;28;20251;-29
2024/02/19 02:52:12;;;;;;;23.85;4.32;;;;;;;;;;5075132;28;20269;-28
2024/02/19 02:54:37;;;;;;;31.23;3.90;;;;;;;;;;5075705;28;20027;-28
2024/02/19 02:57:02;;;;;;;26.13;3.72;;;;;;;;;;5075320;28;20274;-29
2024/02/19 02:59:27;;;;;;;25.55;3.55;;;;;;;;;;5075037;28;20070;-28
2024/02/19 03:01:52;;;;;;;25.20;3.30;;;;;;;;;;5074894;28;20024;-29
2024/02/19 03:04:18;;;;;;;28.90;3.10;;;;;;;;;;5074814;28;20802;-28
2024/02/19 03:06:43;;;;;;;25.47;3.30;;;;;;;;;;5074860;28;20278;-29
2024/02/19 03:09:08;;;;;;;32.88;4.32;;;;;;;;;;5073806;28;20762;-28
2024/02/19 03:11:33;;;;;;;32.97;3.63;;;;;;;;;;5075085;28;20089;-29
2024/02/19 03:13:58;;;;;;;25.03;3.17;;;;;;;;;;5074742;28;20247;-28
2024/02/19 03:16:23;;;;;;;27.08;3.45;;;;;;;;;;5073127;28;20282;-28
2024/02/19 03:18:50;;;;;;;31.40;3.40;;;;;;;;;;5072495;28;20107;-28
2024/02/19 03:21:17;;;;;;;29.40;3.88;;;;;;;;;;5072486;28;20630;-28
2024/02/19 03:23:47;;;;;;;22.55;3.35;;;;;;;;;;5072479;28;20021;-29
2024/02/19 03:26:12;;;;;;;27.52;3.10;;;;;;;;;;5072562;28;20051;-29
2024/02/19 03:28:37;;;;;;;28.33;2.87;;;;;;;;;;5072549;28;20368;-29
2024/02/19 03:31:02;;;;;;;23.93;3.80;;;;;;;;;;5073496;28;20333;-29
2024/02/19 03:33:27;;;;;;;25.77;3.40;;;;;;;;;;5074301;28;20247;-28
2024/02/19 03:35:53;;;;;;;23.13;3.87;;;;;;;;;;5074801;28;20289;-29
2024/02/19 03:38:18;;;;;;;24.48;3.15;;;;;;;;;;5074526;28;20265;-29
2024/02/19 03:40:43;;;;;;;28.50;3.47;;;;;;;;;;5074433;28;20016;-28
2024/02/19 03:43:09;;;;;;;22.43;2.87;;;;;;;;;;5074099;28;20464;-29
2024/02/19 03:45:35;;;;;;;27.38;3.20;;;;;;;;;;5074214;28;20610;-29
2024/02/19 03:48:00;;;;;;;29.87;3.23;;;;;;;;;;5074054;28;20017;-29
2024/02/19 03:50:25;;;;;;;33.57;3.90;;;;;;;;;;5073971;28;20251;-28
2024/02/19 03:52:50;;;;;;;32.20;3.50;;;;;;;;;;5073908;28;20255;-29
2024/02/19 03:55:16;;;;;;;25.70;3.08;;;;;;;;;;5074237;28;20025;-28
2024/02/19 03:57:41;;;;;;;30.38;3.17;;;;;;;;;;5073805;28;20460;-28
2024/02/19 04:00:07;;;;;;;24.17;3.63;;;;;;;;;;5074058;28;20020;-28
2024/02/19 04:02:32;;;;;;;21.88;3.42;;;;;;;;;;5074145;28;20017;-28
2024/02/19 04:04:57;;;;;;;31.13;3.53;;;;;;;;;;5074195;28;20027;-28
2024/02/19 04:07:24;;;;;;;28.53;3.33;;;;;;;;;;5073840;28;20036;-29
2024/02/19 04:09:49;;;;;;;24.17;3.35;;;;;;;;;;5073952;28;20308;-28
2024/02/19 04:12:15;;;;;;;25.13;3.45;;;;;;;;;;5073873;28;20098;-28
2024/02/19 04:14:40;;;;;;;28.52;3.67;;;;;;;;;;5073852;28;20348;-28
2024/02/19 04:17:06;;;;;;;27.90;3.80;;;;;;;;;;5073929;28;20103;-28
2024/02/19 04:19:31;;;;;;;25.13;3.30;;;;;;;;;;5073440;28;20021;-29
2024/02/19 04:21:56;;;;;;;26.07;3.10;;;;;;;;;;5074092;28;20024;-29
2024/02/19 04:24:21;;;;;;;28.15;3.53;;;;;;;;;;5073460;28;20259;-28
2024/02/19 04:26:47;;;;;;;24.17;3.50;;;;;;;;;;5073422;28;20065;-29
2024/02/19 04:29:12;;;;;;;39.35;4.55;;;;;;;;;;5073709;28;20262;-29
2024/02/19 04:31:37;;;;;;;28.63;3.55;;;;;;;;;;5073661;28;20015;-28
2024/02/19 04:34:02;;;;;;;27.50;3.28;;;;;;;;;;5073468;28;20025;-29
2024/02/19 04:36:28;;;;;;;21.15;2.95;;;;;;;;;;5073645;28;20425;-28
2024/02/19 04:38:53;;;;;;;32.55;4.05;;;;;;;;;;5073366;28;20048;-28
2024/02/19 04:41:18;;;;;;;23.05;3.35;;;;;;;;;;5073574;28;20383;-29
2024/02/19 04:43:43;;;;;;;24.60;3.63;;;;;;;;;;5073301;28;20378;-28
2024/02/19 04:46:08;;;;;;;18.60;3.33;;;;;;;;;;5073731;28;20433;-28
2024/02/19 04:48:35;;;;;;;31.38;3.50;;;;;;;;;;5073232;28;20095;-28
2024/02/19 04:51:00;;;;;;;20.27;3.00;;;;;;;;;;5073161;28;20100;-29
2024/02/19 04:53:26;;;;;;;28.27;3.58;;;;;;;;;;5073444;28;20048;-28
2024/02/19 04:55:52;;;;;;;24.60;3.28;;;;;;;;;;5073406;28;20442;-29
2024/02/19 04:58:17;;;;;;;33.35;3.38;;;;;;;;;;5073720;28;20020;-29
2024/02/19 05:00:43;;;;;;;28.85;3.35;;;;;;;;;;5073156;28;20020;-28
2024/02/19 05:03:08;;;;;;;20.92;3.50;;;;;;;;;;5073370;28;20016;-29
2024/02/19 05:05:33;;;;;;;21.65;3.42;;;;;;;;;;5073001;28;20024;-28
2024/02/19 05:07:58;;;;;;;21.73;2.77;;;;;;;;;;5073262;28;20045;-29
2024/02/19 05:10:24;;;;;;;17.83;3.15;;;;;;;;;;5073075;28;20291;-28
2024/02/19 05:12:49;;;;;;;27.07;3.97;;;;;;;;;;5072942;28;20029;-28
2024/02/19 05:15:14;;;;;;;24.10;3.30;;;;;;;;;;5073336;28;20377;-28
2024/02/19 05:17:39;;;;;;;23.70;3.05;;;;;;;;;;5073241;28;20259;-29
2024/02/19 05:20:07;;;;;;;24.23;3.00;;;;;;;;;;5072978;28;20027;-28
2024/02/19 05:22:33;;;;;;;21.52;3.00;;;;;;;;;;5073229;28;20288;-29
2024/02/19 05:24:58;;;;;;;20.50;3.05;;;;;;;;;;5073087;28;20091;-28
2024/02/19 05:27:24;;;;;;;18.58;3.08;;;;;;;;;;5072840;28;20529;-28
2024/02/19 05:29:49;;;;;;;21.70;4.00;;;;;;;;;;5073117;28;20045;-29
2024/02/19 05:32:14;;;;;;;18.88;2.70;;;;;;;;;;5074483;28;20016;-28
2024/02/19 05:34:40;;;;;;;22.50;2.88;;;;;;;;;;5076897;28;20013;-28
2024/02/19 05:37:05;;;;;;;20.02;3.03;;;;;;;;;;5076824;28;20024;-28
2024/02/19 05:39:30;;;;;;;21.50;3.70;;;;;;;;;;5077092;28;20096;-28
2024/02/19 05:41:55;;;;;;;22.27;3.87;;;;;;;;;;5076446;28;20730;-29
2024/02/19 05:44:20;;;;;;;17.70;2.70;;;;;;;;;;5076970;28;20326;-28
2024/02/19 05:46:46;;;;;;;19.13;3.37;;;;;;;;;;5076369;28;20267;-29
2024/02/19 05:49:11;;;;;;;23.20;3.25;;;;;;;;;;5075150;28;20302;-29
2024/02/19 05:51:36;;;;;;;19.20;3.63;;;;;;;;;;5076218;28;20020;-28
2024/02/19 05:54:01;;;;;;;15.43;3.77;;;;;;;;;;5076345;28;20021;-29
2024/02/19 05:56:28;;;;;;;18.70;3.40;;;;;;;;;;5076527;28;20345;-29
2024/02/19 05:58:54;;;;;;;22.70;4.50;;;;;;;;;;5076435;28;20383;-28
2024/02/19 06:01:19;;;;;;;23.25;3.75;;;;;;;;;;5076348;28;20100;-28
2024/02/19 06:03:44;;;;;;;18.38;3.25;;;;;;;;;;5076357;28;20078;-29
2024/02/19 06:06:09;;;;;;;20.55;3.88;;;;;;;;;;5076218;28;20020;-28
2024/02/19 06:08:34;;;;;;;23.40;3.53;;;;;;;;;;5075917;28;20040;-29
2024/02/19 06:11:02;;;;;;;18.40;3.50;;;;;;;;;;5076422;28;20247;-28
2024/02/19 06:13:28;;;;;;;22.00;3.58;;;;;;;;;;5075922;28;20266;-28
2024/02/19 06:15:53;;;;;;;22.55;3.75;;;;;;;;;;5076179;28;20028;-29
2024/02/19 06:18:19;;;;;;;19.90;3.50;;;;;;;;;;5076354;28;20012;-29
2024/02/19 06:20:44;;;;;;;13.85;3.35;;;;;;;;;;5076077;28;20021;-29
2024/02/19 06:23:09;;;;;;;17.70;3.53;;;;;;;;;;5075739;28;20357;-29
2024/02/19 06:25:34;;;;;;;20.10;3.80;;;;;;;;;;5076160;28;20270;-29
2024/02/19 06:28:02;;;;;;;17.90;3.67;;;;;;;;;;5075901;28;20464;-29
2024/02/19 06:30:27;;;;;;;20.45;4.32;;;;;;;;;;5076710;28;20570;-28
2024/02/19 06:32:52;;;;;;;21.80;3.87;;;;;;;;;;5075595;28;20017;-28
2024/02/19 06:35:17;;;;;;;17.10;3.40;;;;;;;;;;5074244;28;20336;-29
2024/02/19 06:37:42;;;;;;;17.50;3.60;;;;;;;;;;5075686;28;20017;-29
2024/02/19 06:40:08;;;;;;;18.95;3.92;;;;;;;;;;5075371;28;20025;-29
2024/02/19 06:42:33;;;;;;;22.63;4.10;;;;;;;;;;5075010;28;20032;-29
2024/02/19 06:44:58;;;;;;;19.10;3.85;;;;;;;;;;5074387;28;20062;-29
2024/02/19 06:47:24;;;;;;;16.70;4.20;;;;;;;;;;5075367;28;20558;-28
2024/02/19 06:49:49;;;;;;;18.63;3.72;;;;;;;;;;5075833;28;20009;-29
2024/02/19 06:52:14;;;;;;;23.43;3.83;;;;;;;;;;5075265;28;20352;-29
2024/02/19 06:54:39;;;;;;;25.60;3.87;;;;;;;;;;5075186;28;20290;-28
2024/02/19 06:57:04;;;;;;;19.23;3.63;;;;;;;;;;5075491;28;20262;-29
2024/02/19 06:59:33;;;;;;;18.67;3.50;;;;;;;;;;5075098;28;20029;-28
2024/02/19 07:01:58;;;;;;;15.75;3.50;;;;;;;;;;5075058;28;20027;-28
2024/02/19 07:04:23;;;;;;;23.80;3.97;;;;;;;;;;5075426;28;20017;-29
2024/02/19 07:06:49;;;;;;;21.50;4.03;;;;;;;;;;5075026;28;20024;-28
2024/02/19 07:09:14;;;;;;;15.50;3.70;;;;;;;;;;5074706;28;20047;-29
2024/02/19 07:11:40;;;;;;;18.55;3.78;;;;;;;;;;5074691;28;20258;-28
2024/02/19 07:14:05;;;;;;;18.87;3.80;;;;;;;;;;5074798;28;20438;-29
2024/02/19 07:16:30;;;;;;;18.10;3.37;;;;;;;;;;5075269;28;20240;-28
2024/02/19 07:18:55;;;;;;;17.10;3.40;;;;;;;;;;5074577;28;20660;-31
2024/02/19 07:21:20;;;;;;;18.87;3.60;;;;;;;;;;5074860;28;20337;-29
2024/02/19 07:23:46;;;;;;;23.20;4.13;;;;;;;;;;5074804;28;20811;-29
2024/02/19 07:26:11;;;;;;;24.80;3.78;;;;;;;;;;5074687;28;20285;-29
2024/02/19 07:28:36;;;;;;;24.50;4.07;;;;;;;;;;5074718;28;20416;-29
2024/02/19 07:31:02;;;;;;;23.37;3.53;;;;;;;;;;5074403;28;20095;-28
2024/02/19 07:33:30;;;;;;;20.80;4.00;;;;;;;;;;5074272;28;20255;-29
2024/02/19 07:35:55;;;;;;;13.38;3.50;;;;;;;;;;5074556;28;20107;-29
2024/02/19 07:38:20;;;;;;;17.13;3.60;;;;;;;;;;5073501;28;20162;-29
2024/02/19 07:40:45;;;;;;;17.37;3.57;;;;;;;;;;5073594;28;20152;-31
2024/02/19 07:43:12;;;;;;;17.67;3.65;;;;;;;;;;5073512;28;20254;-29
2024/02/19 07:45:38;;;;;;;18.40;3.58;;;;;;;;;;5073641;28;20013;-29
2024/02/19 07:48:06;;;;;;;14.40;3.47;;;;;;;;;;5073414;28;20021;-28
2024/02/19 07:50:32;;;;;;;20.55;4.07;;;;;;;;;;5073451;28;20538;-29
2024/02/19 07:52:57;;;;;;;17.98;3.95;;;;;;;;;;5073841;28;20157;-29
2024/02/19 07:55:23;;;;;;;19.02;3.60;;;;;;;;;;5073809;28;20052;-29
2024/02/19 07:57:48;;;;;;;16.45;3.47;;;;;;;;;;5074154;28;20012;-29
2024/02/19 08:00:13;;;;;;;16.20;3.60;;;;;;;;;;5074399;28;20023;-28
2024/02/19 08:02:39;;;;;;;12.02;3.55;;;;;;;;;;5074351;28;20525;-29
2024/02/19 08:05:04;;;;;;;14.50;3.70;;;;;;;;;;5074238;28;20089;-29
2024/02/19 08:07:29;;;;;;;19.40;3.35;;;;;;;;;;5074177;28;20613;-28
2024/02/19 08:09:54;;;;;;;14.23;3.63;;;;;;;;;;5073747;28;20090;-28
2024/02/19 08:12:20;;;;;;;15.13;3.57;;;;;;;;;;5073606;28;20304;-29
2024/02/19 08:14:45;;;;;;;17.73;4.50;;;;;;;;;;5073649;28;20247;-28
2024/02/19 08:17:10;;;;;;;19.27;3.55;;;;;;;;;;5073897;28;20331;-28
2024/02/19 08:19:36;;;;;;;20.77;3.90;;;;;;;;;;5073872;28;20020;-29
2024/02/19 08:22:01;;;;;;;18.63;3.77;;;;;;;;;;5073556;28;20730;-29
2024/02/19 08:24:27;;;;;;;17.80;3.45;;;;;;;;;;5073724;28;20255;-28
2024/02/19 08:26:52;;;;;;;16.85;3.67;;;;;;;;;;5073691;28;20348;-29
2024/02/19 08:29:17;;;;;;;13.35;3.50;;;;;;;;;;5073972;28;20017;-29
2024/02/19 08:31:43;;;;;;;19.35;4.20;;;;;;;;;;5073959;28;20036;-29
2024/02/19 08:34:08;;;;;;;17.10;3.17;;;;;;;;;;5073673;28;20020;-29
2024/02/19 08:36:33;;;;;;;18.50;3.80;;;;;;;;;;5073719;28;20352;-28
2024/02/19 08:38:59;;;;;;;12.55;3.47;;;;;;;;;;5073293;28;20424;-28
2024/02/19 08:41:24;;;;;;;20.90;3.37;;;;;;;;;;5073907;28;20028;-28
2024/02/19 08:43:49;;;;;;;19.17;4.07;;;;;;;;;;5073305;28;20297;-29
2024/02/19 08:46:15;;;;;;;17.77;3.50;;;;;;;;;;5073561;28;20032;-29
2024/02/19 08:48:40;;;;;;;12.70;4.03;;;;;;;;;;5073299;28;20476;-29
2024/02/19 08:51:05;;;;;;;17.45;3.30;;;;;;;;;;5073822;28;20017;-29
2024/02/19 08:53:31;;;;;;;15.80;4.00;;;;;;;;;;5073540;28;20028;-29
2024/02/19 08:55:56;;;;;;;14.80;3.50;;;;;;;;;;5073172;28;20111;-28
2024/02/19 08:58:21;;;;;;;21.87;4.10;;;;;;;;;;5073720;28;20255;-29
2024/02/19 09:00:46;;;;;;;19.40;4.10;;;;;;;;;;5073676;28;20722;-29
2024/02/19 09:03:11;;;;;;;21.00;4.00;;;;;;;;;;5073370;28;20029;-28
2024/02/19 09:05:37;;;;;;;16.50;4.40;;;;;;;;;;5073055;28;20138;-28
2024/02/19 09:08:03;;;;;;;13.63;4.50;;;;;;;;;;5076362;28;20045;-29
2024/02/19 09:10:28;;;;;;;21.38;4.55;;;;;;;;;;5077093;28;20020;-29
2024/02/19 09:12:53;;;;;;;17.42;4.80;;;;;;;;;;5077786;28;20027;-29
2024/02/19 09:15:19;;;;;;;18.23;4.43;;;;;;;;;;5077026;28;20091;-29
2024/02/19 09:17:44;;;;;;;15.75;3.83;;;;;;;;;;5077240;28;20016;-28
2024/02/19 09:20:09;;;;;;;18.47;3.80;;;;;;;;;;5076946;28;20425;-29
2024/02/19 09:22:35;;;;;;;13.70;4.40;;;;;;;;;;5076787;28;20271;-28
2024/02/19 09:25:00;;;;;;;14.27;4.20;;;;;;;;;;5076778;28;20364;-29
2024/02/19 09:27:25;;;;;;;17.20;4.20;;;;;;;;;;5076645;28;20028;-29
2024/02/19 09:29:50;;;;;;;21.73;4.67;;;;;;;;;;5077007;28;20016;-28
2024/02/19 09:32:15;;;;;;;20.30;4.60;;;;;;;;;;5076940;28;20315;-29
2024/02/19 09:34:41;;;;;;;16.85;4.40;;;;;;;;;;5076596;28;20503;-29
2024/02/19 09:37:06;;;;;;;25.30;4.75;;;;;;;;;;5076646;28;20031;-29
2024/02/19 09:39:31;;;;;;;20.55;3.88;;;;;;;;;;5076794;28;20016;-29
2024/02/19 09:41:57;;;;;;;19.02;4.45;;;;;;;;;;5076801;28;20013;-28
2024/02/19 09:44:22;;;;;;;21.20;4.35;;;;;;;;;;5076703;28;20419;-28
2024/02/19 09:46:48;;;;;;;22.20;5.40;;;;;;;;;;5076257;28;20056;-29
2024/02/19 09:49:14;;;;;;;19.00;4.47;;;;;;;;;;5076879;28;20259;-29
2024/02/19 09:51:46;;;;;;;15.43;3.72;;;;;;;;;;5076596;28;20020;-29
2024/02/19 09:54:11;;;;;;;12.57;4.10;;;;;;;;;;5076168;28;20031;-29
2024/02/19 09:56:37;;;;;;;20.02;4.13;;;;;;;;;;5076194;28;20259;-28
2024/02/19 09:59:04;;;;;;;16.55;4.65;;;;;;;;;;5076437;28;20039;-29
2024/02/19 10:01:29;;;;;;;23.45;4.22;;;;;;;;;;5076436;28;20020;-29
2024/02/19 10:03:56;;;;;;;17.77;4.27;;;;;;;;;;5076052;28;20085;-29
2024/02/19 10:06:29;;;;;;;16.30;4.25;;;;;;;;;;5075996;28;20769;-29
2024/02/19 10:08:54;;;;;;;14.85;3.92;;;;;;;;;;5075922;28;20049;-29
2024/02/19 10:11:19;;;;;;;16.17;3.87;;;;;;;;;;5076511;28;20028;-29
2024/02/19 10:13:44;;;;;;;15.88;3.83;;;;;;;;;;5076024;28;20274;-28
2024/02/19 10:16:11;;;;;;;19.43;3.70;;;;;;;;;;5075884;28;20152;-29
2024/02/19 10:18:37;;;;;;;17.23;3.90;;;;;;;;;;5075709;28;20265;-29
2024/02/19 10:21:02;;;;;;;17.20;3.50;;;;;;;;;;5075711;28;20044;-29
2024/02/19 10:23:28;;;;;;;15.00;3.38;;;;;;;;;;5076328;28;20074;-29
2024/02/19 10:25:54;;;;;;;12.80;3.20;;;;;;;;;;5075691;28;20424;-28
2024/02/19 10:28:23;;;;;;;13.80;3.67;;;;;;;;;;5075604;28;20263;-29
2024/02/19 10:30:49;;;;;;;13.68;3.67;;;;;;;;;;5075576;28;20013;-29
2024/02/19 10:33:14;;;;;;;19.33;3.78;;;;;;;;;;5076180;28;20024;-29
2024/02/19 10:35:40;;;;;;;16.20;4.00;;;;;;;;;;5075540;28;20074;-29
2024/02/19 10:38:05;;;;;;;15.05;3.40;;;;;;;;;;5075702;28;20527;-29
2024/02/19 10:40:31;;;;;;;14.02;3.22;;;;;;;;;;5075390;28;20052;-29
2024/02/19 10:42:56;;;;;;;17.13;3.60;;;;;;;;;;5075532;28;20020;-29
2024/02/19 10:45:21;;;;;;;18.20;3.47;;;;;;;;;;5075267;28;20042;-29
2024/02/19 10:47:47;;;;;;;12.93;3.25;;;;;;;;;;5075899;28;20115;-29
2024/02/19 10:50:14;;;;;;;15.02;3.60;;;;;;;;;;5075535;28;20016;-29
2024/02/19 10:52:41;;;;;;;14.70;3.28;;;;;;;;;;5075016;28;20017;-28
2024/02/19 10:55:13;;;;;;;11.65;3.03;;;;;;;;;;5075364;28;20372;-28
2024/02/19 10:57:51;;;;;;;12.88;3.17;;;;;;;;;;5074756;28;20013;-28
2024/02/19 11:00:17;;;;;;;12.02;3.15;;;;;;;;;;5073587;28;20024;-28
2024/02/19 11:02:42;;;;;;;14.68;3.30;;;;;;;;;;5074289;28;20032;-29
2024/02/19 11:05:11;;;;;;;15.52;3.03;;;;;;;;;;5073788;28;20478;-28
2024/02/19 11:07:36;;;;;;;12.05;2.63;;;;;;;;;;5074737;28;20127;-29
2024/02/19 11:10:05;;;;;;;15.27;3.03;;;;;;;;;;5075172;28;20174;-28
2024/02/19 11:12:31;;;;;;;9.77;2.80;;;;;;;;;;5074711;28;20016;-29
2024/02/19 11:14:56;;;;;;;15.63;3.25;;;;;;;;;;5075043;28;20023;-28
2024/02/19 11:17:24;;;;;;;9.83;2.73;;;;;;;;;;5074740;28;20015;-28
2024/02/19 11:19:52;;;;;;;11.57;3.10;;;;;;;;;;5075184;28;20259;-28
2024/02/19 11:22:22;;;;;;;10.98;3.33;;;;;;;;;;5074566;28;20075;-28
2024/02/19 11:24:48;;;;;;;12.98;3.17;;;;;;;;;;5074832;28;20092;-28
2024/02/19 11:27:13;;;;;;;15.27;2.78;;;;;;;;;;5074699;28;20024;-28
2024/02/19 11:29:41;;;;;;;12.43;2.80;;;;;;;;;;5074292;28;20048;-28
2024/02/19 11:32:06;;;;;;;10.75;2.92;;;;;;;;;;5074340;28;20251;-28
2024/02/19 11:34:32;;;;;;;10.77;2.53;;;;;;;;;;5074571;28;20013;-28
2024/02/19 11:37:08;;;;;;;10.80;2.67;;;;;;;;;;5074235;28;20046;-27
2024/02/19 11:39:33;;;;;;;13.32;2.80;;;;;;;;;;5074509;28;20506;-28
2024/02/19 11:41:59;;;;;;;15.70;3.15;;;;;;;;;;5074191;28;20021;-28
2024/02/19 11:44:25;;;;;;;10.88;2.63;;;;;;;;;;5074131;28;20103;-27
2024/02/19 11:46:51;;;;;;;10.73;2.60;;;;;;;;;;5074239;28;20492;-27
2024/02/19 11:49:18;;;;;;;12.35;2.35;;;;;;;;;;5074584;28;20375;-28
2024/02/19 11:51:43;;;;;;;14.48;2.72;;;;;;;;;;5073980;28;20008;-28
2024/02/19 11:54:10;;;;;;;9.30;2.65;;;;;;;;;;5074117;28;20021;-28
2024/02/19 11:56:45;;;;;;;21.27;2.88;;;;;;;;;;5074178;28;20040;-28
2024/02/19 11:59:10;;;;;;;11.23;2.75;;;;;;;;;;5073829;28;20016;-28
2024/02/19 12:01:35;;;;;;;5.63;2.10;;;;;;;;;;5073817;28;20024;-27
2024/02/19 12:04:01;;;;;;;11.20;2.08;;;;;;;;;;5074293;28;20360;-28
2024/02/19 12:06:27;;;;;;;12.57;2.20;;;;;;;;;;5074238;28;20016;-28
2024/02/19 12:08:52;;;;;;;10.35;2.50;;;;;;;;;;5073535;28;20484;-28
2024/02/19 12:11:17;;;;;;;10.52;2.30;;;;;;;;;;5073635;28;20096;-28
2024/02/19 12:13:42;;;;;;;9.95;2.20;;;;;;;;;;5073899;28;20479;-27
2024/02/19 12:16:09;;;;;;;7.83;2.20;;;;;;;;;;5074196;28;20032;-28
2024/02/19 12:18:34;;;;;;;9.63;2.15;;;;;;;;;;5073967;28;20349;-28
2024/02/19 12:20:59;;;;;;;4.77;2.07;;;;;;;;;;5073573;28;20476;-28
2024/02/19 12:23:24;;;;;;;10.10;2.13;;;;;;;;;;5073760;28;20271;-28
2024/02/19 12:25:50;;;;;;;13.57;2.25;;;;;;;;;;5073939;28;20021;-28
2024/02/19 12:28:15;;;;;;;11.60;2.40;;;;;;;;;;5072215;28;20012;-28
2024/02/19 12:30:40;;;;;;;10.73;2.60;;;;;;;;;;5073966;28;20013;-28
2024/02/19 12:33:07;;;;;;;11.23;3.30;;;;;;;;;;5073397;28;20024;-28
2024/02/19 12:35:32;;;;;;;13.48;2.80;;;;;;;;;;5073484;28;20025;-28
2024/02/19 12:37:57;;;;;;;9.43;2.73;;;;;;;;;;5073889;28;20074;-27
2024/02/19 12:40:22;;;;;;;11.23;3.05;;;;;;;;;;5073318;28;20677;-28
2024/02/19 12:42:47;;;;;;;14.63;3.30;;;;;;;;;;5073308;28;20024;-27
2024/02/19 12:45:13;;;;;;;12.32;3.25;;;;;;;;;;5073507;28;20024;-29
2024/02/19 12:47:38;;;;;;;14.13;3.40;;;;;;;;;;5073257;28;20486;-27
2024/02/19 12:50:04;;;;;;;11.57;2.97;;;;;;;;;;5073824;28;20013;-28
2024/02/19 12:52:29;;;;;;;14.35;3.00;;;;;;;;;;5073674;28;20019;-28
2024/02/19 12:54:54;;;;;;;10.57;3.13;;;;;;;;;;5073534;28;20467;-28
2024/02/19 12:57:21;;;;;;;16.83;3.13;;;;;;;;;;5073400;28;20021;-28
2024/02/19 12:59:46;;;;;;;16.40;3.67;;;;;;;;;;5073493;28;20028;-27
2024/02/19 13:02:14;;;;;;;16.20;3.75;;;;;;;;;;5073147;28;20036;-27
2024/02/19 13:04:39;;;;;;;15.90;3.60;;;;;;;;;;5073367;28;20456;-27
2024/02/19 13:07:04;;;;;;;15.55;3.67;;;;;;;;;;5072849;28;20025;-28
2024/02/19 13:09:29;;;;;;;17.00;3.73;;;;;;;;;;5073670;28;20029;-27
2024/02/19 13:11:56;;;;;;;12.50;3.50;;;;;;;;;;5072990;28;20606;-28
2024/02/19 13:14:24;;;;;;;18.30;3.58;;;;;;;;;;5073532;28;20254;-27
2024/02/19 13:16:49;;;;;;;16.38;4.88;;;;;;;;;;5073015;28;20032;-28
2024/02/19 13:19:17;;;;;;;16.27;3.73;;;;;;;;;;5073556;28;20066;-28
2024/02/19 13:21:42;;;;;;;13.18;3.30;;;;;;;;;;5073027;28;20255;-28
2024/02/19 13:24:07;;;;;;;13.95;4.00;;;;;;;;;;5072969;28;20020;-28
2024/02/19 13:26:33;;;;;;;12.07;3.87;;;;;;;;;;5073457;28;20017;-28
2024/02/19 13:28:58;;;;;;;11.77;3.50;;;;;;;;;;5073115;28;20251;-28
2024/02/19 13:31:23;;;;;;;14.07;4.17;;;;;;;;;;5072835;28;20021;-28
2024/02/19 13:33:49;;;;;;;18.40;4.70;;;;;;;;;;5073354;28;20254;-27
2024/02/19 13:36:16;;;;;;;16.60;4.30;;;;;;;;;;5072713;28;20334;-27
2024/02/19 13:38:41;;;;;;;19.15;4.07;;;;;;;;;;5072763;28;20162;-27
2024/02/19 13:41:09;;;;;;;16.45;3.90;;;;;;;;;;5072770;28;20059;-28
2024/02/19 13:43:35;;;;;;;15.43;4.60;;;;;;;;;;5072696;28;20056;-28
2024/02/19 13:46:06;;;;;;;17.23;4.50;;;;;;;;;;5072629;28;20105;-27
2024/02/19 13:48:32;;;;;;;16.98;4.22;;;;;;;;;;5073025;28;20037;-27
2024/02/19 13:50:57;;;;;;;17.70;5.00;;;;;;;;;;5072680;28;20097;-28
2024/02/19 13:53:24;;;;;;;16.10;4.07;;;;;;;;;;5074630;28;20115;-28
2024/02/19 13:55:50;;;;;;;18.15;4.55;;;;;;;;;;5076238;28;20024;-28
2024/02/19 13:58:15;;;;;;;15.80;4.05;;;;;;;;;;5076472;28;20033;-28
2024/02/19 14:00:40;;;;;;;17.60;4.33;;;;;;;;;;5076412;28;20027;-28
2024/02/19 14:03:06;;;;;;;14.80;4.25;;;;;;;;;;5076344;28;20254;-28
2024/02/19 14:05:33;;;;;;;19.95;4.65;;;;;;;;;;5076264;28;20017;-27
2024/02/19 14:07:58;;;;;;;12.52;4.00;;;;;;;;;;5075994;28;20492;-27
2024/02/19 14:10:23;;;;;;;17.47;4.20;;;;;;;;;;5076064;28;20013;-28
2024/02/19 14:12:49;;;;;;;18.17;3.87;;;;;;;;;;5076177;28;20251;-27
2024/02/19 14:15:14;;;;;;;16.25;4.65;;;;;;;;;;5076457;28;20015;-28
2024/02/19 14:17:39;;;;;;;13.67;3.90;;;;;;;;;;5075833;28;20368;-28
2024/02/19 14:20:05;;;;;;;14.20;3.87;;;;;;;;;;5076350;28;20333;-28
2024/02/19 14:22:30;;;;;;;15.57;4.38;;;;;;;;;;5076916;28;20636;-28